Time;durP1;ratioP1;P1;durP2;ratioP2;P2;SDS_P1;SDS_P2;PMS_P1;PMS_P2;Temp;Humidity;BMP_temperature;BMP_pressure;BME280_temperature;BME280_humidity;BME280_pressure;Samples;Min_cycle;Max_cycle;Signal;HPM_P1;HPM_P2
2021/01/14 00:00:05;;;;;;;17.73;11.88;;;4.10;92.60;;;;;;5049277;28;20071;-78
2021/01/14 00:02:31;;;;;;;19.73;11.73;;;4.10;92.60;;;;;;5051059;28;20068;-79
2021/01/14 00:04:56;;;;;;;17.75;11.80;;;4.10;92.70;;;;;;5048053;28;20072;-80
2021/01/14 00:07:22;;;;;;;17.88;12.50;;;4.10;92.70;;;;;;5050659;28;20067;-78
2021/01/14 00:09:48;;;;;;;20.23;13.20;;;4.10;92.80;;;;;;5046126;28;20060;-80
2021/01/14 00:12:14;;;;;;;19.52;11.93;;;4.10;92.90;;;;;;5044814;28;20474;-80
2021/01/14 00:14:39;;;;;;;24.23;13.05;;;4.10;92.80;;;;;;5053618;28;20120;-80
2021/01/14 00:17:05;;;;;;;18.52;12.90;;;4.10;92.90;;;;;;5049375;28;20033;-81
2021/01/14 00:19:31;;;;;;;20.20;13.73;;;4.10;92.90;;;;;;5046104;28;20436;-79
2021/01/14 00:21:56;;;;;;;20.02;12.85;;;4.10;93.00;;;;;;5043860;28;20037;-80
2021/01/14 00:24:22;;;;;;;18.73;12.80;;;4.10;93.10;;;;;;5047887;28;20047;-80
2021/01/14 00:26:48;;;;;;;20.88;13.60;;;4.00;93.10;;;;;;5048643;28;20123;-80
2021/01/14 00:29:14;;;;;;;21.98;13.43;;;4.10;93.10;;;;;;5045747;28;20520;-80
2021/01/14 00:31:40;;;;;;;19.02;13.07;;;4.10;93.20;;;;;;5046158;28;20392;-80
2021/01/14 00:34:06;;;;;;;18.98;13.45;;;4.10;93.10;;;;;;5043099;28;20083;-81
2021/01/14 00:39:40;;;;;;;20.13;12.65;;;4.10;93.10;;;;;;4985596;28;20541;-80
2021/01/14 00:42:06;;;;;;;16.98;11.70;;;4.10;93.10;;;;;;5032874;28;20078;-80
2021/01/14 00:44:31;;;;;;;16.70;11.82;;;4.10;93.10;;;;;;5043625;28;20540;-80
2021/01/14 00:46:58;;;;;;;17.48;11.40;;;4.10;93.10;;;;;;5043790;28;20031;-80
2021/01/14 00:49:25;;;;;;;18.60;13.23;;;4.10;93.00;;;;;;5048664;28;20043;-80
2021/01/14 00:51:51;;;;;;;18.33;12.57;;;4.10;93.00;;;;;;5047102;28;20059;-80
2021/01/14 00:54:17;;;;;;;17.90;12.48;;;4.10;93.10;;;;;;5049388;28;20029;-80
2021/01/14 00:56:43;;;;;;;16.58;11.65;;;4.10;93.10;;;;;;5048957;28;20036;-81
2021/01/14 00:59:09;;;;;;;19.65;12.75;;;4.10;93.10;;;;;;5044383;28;20576;-80
2021/01/14 01:01:39;;;;;;;17.13;12.27;;;4.10;93.10;;;;;;5046887;28;20025;-80
2021/01/14 01:04:05;;;;;;;17.52;12.32;;;4.10;93.00;;;;;;5048952;28;20044;-80
2021/01/14 01:06:39;;;;;;;19.30;12.70;;;4.10;93.10;;;;;;5047209;28;20029;-80
2021/01/14 01:09:10;;;;;;;16.67;11.75;;;4.10;93.10;;;;;;5046623;28;20041;-80
2021/01/14 01:11:36;;;;;;;17.38;12.25;;;4.10;93.10;;;;;;5049653;28;20380;-80
2021/01/14 01:14:03;;;;;;;19.65;12.77;;;4.10;93.20;;;;;;5044123;28;20032;-80
2021/01/14 01:16:29;;;;;;;19.98;12.88;;;4.10;93.20;;;;;;5047218;28;20041;-80
2021/01/14 01:18:55;;;;;;;17.88;12.35;;;4.10;93.20;;;;;;5046604;28;20051;-80
2021/01/14 01:21:20;;;;;;;21.60;13.27;;;4.10;93.20;;;;;;5045575;28;20474;-80
2021/01/14 01:23:46;;;;;;;16.85;12.63;;;4.10;93.20;;;;;;5044048;28;20560;-80
2021/01/14 01:26:19;;;;;;;18.85;12.52;;;4.10;93.20;;;;;;5044416;28;20041;-80
2021/01/14 01:28:46;;;;;;;20.52;13.55;;;4.10;93.10;;;;;;5042116;28;20084;-80
2021/01/14 01:31:12;;;;;;;21.30;13.55;;;4.10;93.20;;;;;;5047339;28;20067;-79
2021/01/14 01:33:42;;;;;;;17.38;12.55;;;4.10;93.20;;;;;;5047020;28;20120;-79
2021/01/14 01:36:11;;;;;;;17.98;12.77;;;4.10;93.10;;;;;;5044171;28;20025;-79
2021/01/14 01:38:37;;;;;;;19.65;13.43;;;4.20;93.20;;;;;;5045646;28;20040;-80
2021/01/14 01:41:03;;;;;;;17.73;12.80;;;4.10;93.00;;;;;;5052071;28;20033;-80
2021/01/14 01:43:29;;;;;;;20.67;14.55;;;4.20;93.00;;;;;;5044300;28;20044;-80
2021/01/14 01:45:55;;;;;;;20.88;14.65;;;4.10;93.00;;;;;;5051797;28;20044;-78
2021/01/14 01:48:22;;;;;;;21.50;14.68;;;4.10;93.00;;;;;;5040608;28;20143;-79
2021/01/14 01:50:51;;;;;;;22.48;15.40;;;4.10;93.10;;;;;;5044447;28;20037;-79
2021/01/14 01:53:17;;;;;;;18.00;13.50;;;4.20;93.10;;;;;;5047077;28;20060;-80
2021/01/14 01:55:44;;;;;;;24.70;15.20;;;4.10;93.10;;;;;;5041046;28;20040;-80
2021/01/14 01:58:14;;;;;;;20.60;14.52;;;4.20;93.20;;;;;;5045562;28;20128;-80
2021/01/14 02:00:40;;;;;;;22.92;14.82;;;4.20;93.30;;;;;;5046449;28;20654;-80
2021/01/14 02:03:06;;;;;;;23.30;16.02;;;4.10;93.20;;;;;;5053285;28;20052;-79
2021/01/14 02:05:32;;;;;;;21.00;14.38;;;4.20;93.30;;;;;;5049318;28;20043;-79
2021/01/14 02:07:58;;;;;;;21.08;15.60;;;4.20;93.30;;;;;;5049440;28;20062;-80
2021/01/14 02:10:32;;;;;;;19.42;14.23;;;4.20;93.20;;;;;;5048327;28;20044;-79
2021/01/14 02:13:18;;;;;;;23.15;14.93;;;4.20;93.30;;;;;;5053147;28;20043;-79
2021/01/14 02:15:46;;;;;;;21.65;14.23;;;4.20;93.30;;;;;;5048147;28;20041;-80
2021/01/14 02:18:19;;;;;;;21.25;14.77;;;4.20;93.40;;;;;;5046806;28;20047;-79
2021/01/14 02:20:54;;;;;;;25.63;16.20;;;4.20;93.30;;;;;;5049844;28;20119;-80
2021/01/14 02:23:45;;;;;;;22.08;15.05;;;4.20;93.30;;;;;;5048675;28;20068;-80
2021/01/14 02:26:21;;;;;;;20.55;14.57;;;4.20;93.40;;;;;;5046968;28;20048;-80
2021/01/14 02:28:48;;;;;;;20.95;15.40;;;4.20;93.40;;;;;;5048635;28;20068;-79
2021/01/14 02:31:14;;;;;;;22.67;15.95;;;4.20;93.40;;;;;;5049377;28;20041;-81
2021/01/14 02:33:40;;;;;;;24.20;16.65;;;4.20;93.40;;;;;;5050190;28;20029;-81
2021/01/14 02:36:07;;;;;;;24.05;16.55;;;4.30;93.40;;;;;;5050721;28;20033;-80
2021/01/14 02:38:33;;;;;;;22.73;16.05;;;4.20;93.40;;;;;;5047298;28;20026;-80
2021/01/14 02:40:59;;;;;;;26.83;17.38;;;4.20;93.40;;;;;;5051501;28;20527;-80
2021/01/14 02:43:25;;;;;;;24.30;16.77;;;4.20;93.40;;;;;;5048800;28;20064;-80
2021/01/14 02:45:51;;;;;;;25.27;17.02;;;4.20;93.40;;;;;;5049394;28;20037;-80
2021/01/14 02:48:26;;;;;;;27.42;18.02;;;4.20;93.40;;;;;;5050381;28;20526;-81
2021/01/14 02:50:53;;;;;;;;;;;4.20;93.40;;;;;;5049046;28;20052;-80
2021/01/14 02:53:21;;;;;;;25.58;18.05;;;4.10;93.40;;;;;;5044749;28;19920;-80
2021/01/14 02:55:49;;;;;;;24.77;17.15;;;4.20;93.40;;;;;;5049920;28;20491;-80
2021/01/14 02:58:15;;;;;;;24.08;18.17;;;4.20;93.40;;;;;;5047579;28;20041;-80
2021/01/14 03:00:41;;;;;;;24.52;17.58;;;4.20;93.40;;;;;;5048599;28;20055;-80
2021/01/14 03:03:06;;;;;;;25.25;17.65;;;4.20;93.40;;;;;;5048597;28;20448;-80
2021/01/14 03:05:32;;;;;;;22.45;16.30;;;4.20;93.40;;;;;;5044679;28;20091;-80
2021/01/14 03:07:58;;;;;;;23.67;17.30;;;4.30;93.40;;;;;;5051466;28;20029;-81
2021/01/14 03:10:23;;;;;;;25.10;18.80;;;4.30;93.40;;;;;;5051880;28;20029;-80
2021/01/14 03:12:49;;;;;;;23.67;18.15;;;4.20;93.40;;;;;;5049619;28;20392;-80
2021/01/14 03:15:15;;;;;;;27.35;19.60;;;4.30;93.40;;;;;;5047343;28;20044;-80
2021/01/14 03:17:40;;;;;;;27.38;19.63;;;4.30;93.50;;;;;;5049043;28;20512;-80
2021/01/14 03:20:07;;;;;;;25.50;19.80;;;4.30;93.50;;;;;;5048228;28;20040;-80
2021/01/14 03:22:38;;;;;;;27.60;20.25;;;4.30;93.50;;;;;;5046977;28;20412;-79
2021/01/14 03:25:09;;;;;;;28.27;21.55;;;4.30;93.50;;;;;;5056042;28;20032;-79
2021/01/14 03:27:39;;;;;;;30.70;22.33;;;4.30;93.40;;;;;;5048538;28;20025;-78
2021/01/14 03:30:07;;;;;;;30.45;24.45;;;4.30;93.40;;;;;;5047083;28;20044;-79
2021/01/14 03:32:32;;;;;;;31.17;22.73;;;4.30;93.40;;;;;;5046191;28;20110;-79
2021/01/14 03:34:58;;;;;;;30.77;23.95;;;4.20;93.40;;;;;;5049761;28;20361;-79
2021/01/14 03:37:24;;;;;;;32.63;24.08;;;4.30;93.40;;;;;;5051674;28;20032;-80
2021/01/14 03:39:49;;;;;;;30.30;23.85;;;4.30;93.40;;;;;;5050420;28;20449;-79
2021/01/14 03:42:19;;;;;;;33.40;23.70;;;4.20;93.30;;;;;;5049758;28;20124;-79
2021/01/14 03:44:45;;;;;;;31.63;23.70;;;4.30;93.40;;;;;;5049416;28;20388;-79
2021/01/14 03:47:11;;;;;;;31.67;23.60;;;4.20;93.30;;;;;;5047763;28;20045;-78
2021/01/14 03:49:36;;;;;;;29.67;23.05;;;4.20;93.30;;;;;;5043880;28;20069;-78
2021/01/14 03:52:02;;;;;;;29.08;22.15;;;4.20;93.30;;;;;;5048716;28;20064;-78
2021/01/14 03:54:28;;;;;;;29.25;22.65;;;4.20;93.30;;;;;;5045876;28;20033;-79
2021/01/14 03:56:54;;;;;;;32.80;23.45;;;4.20;93.40;;;;;;5047261;28;20711;-79
2021/01/14 03:59:19;;;;;;;29.58;22.08;;;4.20;93.40;;;;;;5049966;28;20149;-78
2021/01/14 04:01:45;;;;;;;27.88;21.40;;;4.10;93.30;;;;;;5044045;28;20068;-79
2021/01/14 04:04:10;;;;;;;29.23;21.77;;;4.20;93.40;;;;;;5047876;28;20056;-79
2021/01/14 04:06:37;;;;;;;28.63;21.15;;;4.20;93.40;;;;;;5047254;28;20167;-78
2021/01/14 04:09:05;;;;;;;29.27;22.00;;;4.20;93.40;;;;;;5047069;28;20037;-79
2021/01/14 04:11:31;;;;;;;26.60;20.85;;;4.20;93.40;;;;;;5045786;28;20041;-78
2021/01/14 04:13:57;;;;;;;29.63;21.73;;;4.10;93.40;;;;;;5044843;28;20052;-79
2021/01/14 04:16:22;;;;;;;26.23;20.10;;;4.20;93.40;;;;;;5046565;28;20136;-79
2021/01/14 04:18:48;;;;;;;26.60;19.35;;;4.20;93.40;;;;;;5048455;28;20036;-79
2021/01/14 04:21:17;;;;;;;25.23;19.98;;;4.20;93.40;;;;;;5052040;28;20055;-79
2021/01/14 04:23:45;;;;;;;27.05;18.63;;;4.20;93.50;;;;;;5043202;28;20427;-79
2021/01/14 04:26:12;;;;;;;23.77;17.20;;;4.20;93.40;;;;;;5047604;28;20055;-80
2021/01/14 04:28:40;;;;;;;22.75;16.10;;;4.20;93.30;;;;;;5048721;28;20427;-79
2021/01/14 04:31:06;;;;;;;23.75;17.10;;;4.20;93.30;;;;;;5046805;28;20037;-79
2021/01/14 04:33:32;;;;;;;24.20;17.45;;;4.20;93.30;;;;;;5050405;28;20048;-79
2021/01/14 04:36:00;;;;;;;23.30;16.60;;;4.10;93.20;;;;;;5037455;28;20053;-80
2021/01/14 04:38:28;;;;;;;22.52;17.25;;;4.10;93.30;;;;;;5053107;28;20035;-79
2021/01/14 04:40:56;;;;;;;22.52;17.13;;;4.10;93.30;;;;;;5048826;28;20025;-78
2021/01/14 04:43:23;;;;;;;21.35;15.70;;;4.20;93.30;;;;;;5049853;28;20118;-79
2021/01/14 04:45:52;;;;;;;24.13;17.27;;;4.10;93.20;;;;;;5046739;28;20095;-81
2021/01/14 04:48:19;;;;;;;25.70;17.98;;;4.20;93.20;;;;;;5045380;28;20060;-79
2021/01/14 04:50:46;;;;;;;24.70;18.33;;;4.20;93.20;;;;;;5044063;28;20063;-78
2021/01/14 04:53:14;;;;;;;24.98;17.73;;;4.20;93.20;;;;;;5047333;28;20079;-79
2021/01/14 04:55:47;;;;;;;23.23;16.17;;;4.10;93.10;;;;;;5047666;28;20055;-80
2021/01/14 04:58:18;;;;;;;21.13;15.00;;;4.20;93.10;;;;;;5044906;28;20037;-79
2021/01/14 05:00:51;;;;;;;23.73;16.33;;;4.20;93.10;;;;;;5046513;28;20064;-79
2021/01/14 05:03:22;;;;;;;21.90;14.52;;;4.10;93.10;;;;;;5048407;28;20080;-80
2021/01/14 05:05:49;;;;;;;17.85;12.13;;;4.10;93.00;;;;;;5046306;28;20484;-79
2021/01/14 05:08:16;;;;;;;16.88;11.40;;;4.20;93.00;;;;;;5045499;28;20418;-80
2021/01/14 05:10:44;;;;;;;15.65;9.93;;;4.10;92.90;;;;;;5047648;28;20039;-80
2021/01/14 05:13:10;;;;;;;15.77;9.95;;;4.10;92.70;;;;;;5043760;28;20040;-79
2021/01/14 05:15:37;;;;;;;14.98;9.60;;;4.00;92.70;;;;;;5052989;28;20075;-80
2021/01/14 05:18:03;;;;;;;16.10;9.57;;;4.10;92.70;;;;;;5044784;28;20029;-79
2021/01/14 05:20:29;;;;;;;16.23;10.60;;;4.10;92.60;;;;;;5047439;28;20403;-80
2021/01/14 05:23:00;;;;;;;15.77;9.27;;;4.10;92.60;;;;;;5049621;28;20040;-80
2021/01/14 05:25:26;;;;;;;13.98;9.27;;;4.00;92.40;;;;;;5051427;28;20037;-80
2021/01/14 05:27:52;;;;;;;16.75;9.32;;;4.10;92.40;;;;;;5045594;28;20124;-80
2021/01/14 05:30:19;;;;;;;15.00;9.95;;;4.00;92.30;;;;;;5042910;28;20123;-80
2021/01/14 05:32:46;;;;;;;14.75;9.43;;;4.00;92.20;;;;;;5043320;28;20029;-82
2021/01/14 05:35:27;;;;;;;14.73;10.20;;;4.00;92.10;;;;;;5049941;28;20048;-78
2021/01/14 05:38:00;;;;;;;14.82;10.20;;;4.00;92.10;;;;;;5050497;28;20033;-81
2021/01/14 05:40:28;;;;;;;16.38;10.65;;;3.90;92.10;;;;;;5051602;28;20041;-80
2021/01/14 05:43:05;;;;;;;14.02;9.68;;;4.00;92.00;;;;;;5048983;28;20072;-80
2021/01/14 05:45:32;;;;;;;16.40;11.68;;;3.90;91.80;;;;;;5047771;28;20048;-80
2021/01/14 05:48:11;;;;;;;17.25;11.52;;;3.90;91.70;;;;;;5047965;28;20124;-81
2021/01/14 05:50:45;;;;;;;15.25;10.05;;;3.90;91.60;;;;;;5050045;28;20041;-80
2021/01/14 05:53:18;;;;;;;15.02;9.52;;;4.00;91.50;;;;;;5049031;28;20036;-81
2021/01/14 05:55:49;;;;;;;14.77;10.32;;;3.90;91.50;;;;;;5046206;28;20044;-80
2021/01/14 05:58:19;;;;;;;15.07;10.45;;;3.90;91.50;;;;;;5049320;28;20045;-80
2021/01/14 06:00:46;;;;;;;16.50;10.93;;;3.90;91.60;;;;;;5047052;28;20036;-80
2021/01/14 06:03:28;;;;;;;15.93;10.65;;;3.90;91.70;;;;;;5048403;28;20068;-80
2021/01/14 06:05:56;;;;;;;15.90;10.20;;;3.90;91.60;;;;;;5051626;28;20588;-79
2021/01/14 06:08:23;;;;;;;15.88;10.90;;;3.90;91.60;;;;;;5053543;28;20033;-80
2021/01/14 06:10:49;;;;;;;13.93;10.07;;;3.90;91.70;;;;;;5047824;28;20444;-80
2021/01/14 06:13:15;;;;;;;15.68;10.63;;;3.90;91.70;;;;;;5050092;28;20033;-80
2021/01/14 06:15:41;;;;;;;16.08;11.00;;;3.90;91.80;;;;;;5053798;28;20029;-80
2021/01/14 06:18:12;;;;;;;15.68;9.27;;;3.90;91.80;;;;;;5048714;28;20044;-79
2021/01/14 06:20:53;;;;;;;12.07;8.63;;;3.90;91.80;;;;;;5048386;28;20021;-80
2021/01/14 06:23:22;;;;;;;11.20;7.22;;;3.90;91.70;;;;;;5045540;28;20037;-80
2021/01/14 06:25:52;;;;;;;11.60;8.13;;;3.80;91.80;;;;;;5048611;28;20156;-81
2021/01/14 06:28:21;;;;;;;11.90;6.88;;;3.80;91.70;;;;;;5050887;28;20033;-81
2021/01/14 06:31:01;;;;;;;13.98;7.57;;;3.80;91.60;;;;;;5051709;28;20469;-80
2021/01/14 06:33:28;;;;;;;20.30;12.23;;;3.80;91.70;;;;;;5049538;28;20083;-81
2021/01/14 06:36:08;;;;;;;22.42;14.80;;;3.80;91.60;;;;;;5055393;28;20354;-81
2021/01/14 06:38:42;;;;;;;17.80;12.25;;;3.80;91.60;;;;;;5049044;28;20388;-80
2021/01/14 06:41:20;;;;;;;12.80;8.05;;;3.80;91.60;;;;;;5045290;28;20043;-80
2021/01/14 06:43:48;;;;;;;11.02;7.38;;;3.80;91.70;;;;;;5046945;28;20045;-79
2021/01/14 06:46:20;;;;;;;18.45;12.65;;;3.80;91.70;;;;;;5051644;28;20072;-80
2021/01/14 06:49:02;;;;;;;13.27;9.13;;;3.80;91.50;;;;;;5053535;28;20028;-79
2021/01/14 06:51:51;;;;;;;16.13;10.85;;;3.80;91.50;;;;;;5047882;28;20032;-79
2021/01/14 06:54:18;;;;;;;11.38;6.90;;;3.80;91.60;;;;;;5048249;28;20025;-79
2021/01/14 06:57:00;;;;;;;11.10;6.93;;;3.70;91.60;;;;;;5046774;28;20029;-73
2021/01/14 06:59:26;;;;;;;11.02;5.82;;;3.70;91.50;;;;;;5050374;28;20045;-73
2021/01/14 07:02:07;;;;;;;11.52;6.68;;;3.70;91.30;;;;;;5048725;28;20036;-75
2021/01/14 07:04:44;;;;;;;10.68;6.80;;;3.60;91.20;;;;;;5049976;28;20045;-74
2021/01/14 07:07:27;;;;;;;11.27;6.35;;;3.60;91.10;;;;;;5055339;28;20040;-75
2021/01/14 07:10:06;;;;;;;27.65;20.88;;;3.60;91.00;;;;;;5047497;28;20044;-73
2021/01/14 07:12:36;;;;;;;13.60;10.82;;;3.50;90.60;;;;;;5042507;28;20113;-73
2021/01/14 07:15:10;;;;;;;9.52;6.80;;;3.30;89.90;;;;;;5044517;28;20037;-74
2021/01/14 07:17:39;;;;;;;10.35;6.68;;;3.20;90.10;;;;;;5042863;28;20041;-74
2021/01/14 07:20:15;;;;;;;10.25;7.45;;;3.10;90.10;;;;;;5047461;28;20041;-73
2021/01/14 07:22:53;;;;;;;9.80;6.97;;;3.10;90.10;;;;;;5044142;28;20064;-73
2021/01/14 07:25:20;;;;;;;8.70;6.38;;;3.00;90.40;;;;;;5048508;28;20079;-72
2021/01/14 07:27:48;;;;;;;9.20;6.80;;;3.00;90.40;;;;;;5047722;28;20043;-74
2021/01/14 07:33:36;;;;;;;10.93;8.27;;;2.70;90.10;;;;;;5049092;28;20056;-73
2021/01/14 07:36:22;;;;;;;10.80;7.15;;;2.70;90.40;;;;;;5046779;28;20037;-73
2021/01/14 07:38:54;;;;;;;9.48;6.90;;;2.70;90.40;;;;;;5045502;28;20033;-74
2021/01/14 07:41:20;;;;;;;10.93;7.10;;;2.70;90.20;;;;;;5047046;28;20041;-73
2021/01/14 07:43:46;;;;;;;12.02;6.88;;;2.60;90.30;;;;;;5044895;28;20045;-73
2021/01/14 07:46:13;;;;;;;10.63;6.20;;;2.60;90.30;;;;;;5048658;28;20029;-73
2021/01/14 07:48:39;;;;;;;9.65;5.68;;;2.60;90.50;;;;;;5046317;28;20029;-73
2021/01/14 07:51:05;;;;;;;8.95;5.85;;;2.50;90.40;;;;;;5052103;28;20124;-74
2021/01/14 07:53:31;;;;;;;8.45;4.93;;;2.40;90.40;;;;;;5045930;28;20472;-74
2021/01/14 07:56:23;;;;;;;9.15;5.10;;;2.30;90.40;;;;;;5055234;28;20025;-73
2021/01/14 07:58:53;;;;;;;10.85;5.20;;;2.30;90.30;;;;;;5048754;28;20055;-73
2021/01/14 08:01:19;;;;;;;9.48;5.13;;;2.30;90.50;;;;;;5049797;28;20021;-73
2021/01/14 08:03:45;;;;;;;9.52;5.40;;;2.20;90.50;;;;;;5048844;28;20036;-74
2021/01/14 08:06:22;;;;;;;10.05;5.95;;;2.20;90.60;;;;;;5045577;28;20082;-75
2021/01/14 08:08:58;;;;;;;9.52;6.15;;;2.10;90.50;;;;;;5050771;28;20031;-77
2021/01/14 08:11:25;;;;;;;18.90;10.98;;;2.10;90.50;;;;;;5046549;28;20033;-72
2021/01/14 08:14:07;;;;;;;11.55;7.40;;;2.00;90.20;;;;;;5046917;28;20052;-73
2021/01/14 08:16:41;;;;;;;10.90;8.43;;;2.00;90.50;;;;;;5046857;28;20037;-73
2021/01/14 08:19:10;;;;;;;11.27;7.78;;;2.00;90.50;;;;;;5048595;28;20029;-73
2021/01/14 08:21:35;;;;;;;17.95;13.38;;;1.90;90.50;;;;;;5047964;28;20041;-74
2021/01/14 08:24:02;;;;;;;11.48;8.55;;;1.90;90.70;;;;;;5046550;28;20107;-74
2021/01/14 08:26:27;;;;;;;11.10;7.82;;;1.90;90.60;;;;;;5045194;28;20066;-74
2021/01/14 08:29:00;;;;;;;15.48;10.23;;;1.90;90.80;;;;;;5043877;28;20037;-74
2021/01/14 08:31:38;;;;;;;11.43;8.40;;;1.90;90.90;;;;;;5043822;28;20505;-74
2021/01/14 08:34:08;;;;;;;18.23;12.88;;;1.90;90.90;;;;;;5046032;28;20426;-74
2021/01/14 08:36:41;;;;;;;21.52;15.55;;;1.90;90.90;;;;;;5048664;28;20029;-73
2021/01/14 08:39:10;;;;;;;14.77;11.00;;;1.90;90.90;;;;;;5048972;28;20032;-74
2021/01/14 08:41:36;;;;;;;13.95;9.60;;;1.90;91.00;;;;;;5045922;28;20360;-73
2021/01/14 08:44:03;;;;;;;13.00;8.48;;;2.00;90.90;;;;;;5046067;28;20136;-72
2021/01/14 08:46:40;;;;;;;12.18;8.20;;;1.90;91.00;;;;;;5045316;28;20033;-73
2021/01/14 08:49:13;;;;;;;12.35;9.30;;;1.90;90.90;;;;;;5048643;28;20065;-73
2021/01/14 08:51:39;;;;;;;14.15;9.75;;;1.90;91.00;;;;;;5041887;28;20032;-74
2021/01/14 08:54:06;;;;;;;14.00;9.75;;;1.90;91.00;;;;;;5042697;28;20116;-73
2021/01/14 08:56:32;;;;;;;11.88;8.52;;;1.90;90.90;;;;;;5044602;28;20434;-73
2021/01/14 08:59:12;;;;;;;13.95;10.10;;;1.90;90.90;;;;;;5044049;28;20120;-73
2021/01/14 09:01:38;;;;;;;13.88;10.05;;;1.80;91.10;;;;;;5044568;28;20383;-73
2021/01/14 09:04:06;;;;;;;12.52;9.52;;;1.70;91.20;;;;;;5042503;28;20128;-74
2021/01/14 09:06:40;;;;;;;15.55;9.00;;;1.70;91.30;;;;;;5041757;28;20029;-74
2021/01/14 09:09:08;;;;;;;13.27;9.95;;;1.80;91.40;;;;;;5044692;28;20037;-74
2021/01/14 09:11:34;;;;;;;14.18;9.50;;;1.80;91.20;;;;;;5046968;28;20036;-74
2021/01/14 09:14:11;;;;;;;12.68;8.65;;;1.80;91.20;;;;;;5050729;28;20124;-74
2021/01/14 09:16:38;;;;;;;13.25;8.85;;;1.80;91.30;;;;;;5047484;28;20030;-74
2021/01/14 09:19:18;;;;;;;14.50;10.10;;;1.80;91.20;;;;;;5047145;28;20037;-74
2021/01/14 09:21:44;;;;;;;12.30;8.77;;;1.70;91.10;;;;;;5045036;28;20029;-74
2021/01/14 09:24:12;;;;;;;11.48;8.07;;;1.70;91.10;;;;;;5041888;28;20052;-75
2021/01/14 09:26:38;;;;;;;11.75;8.38;;;1.70;91.10;;;;;;5042269;28;20029;-73
2021/01/14 09:29:06;;;;;;;12.13;8.30;;;1.70;91.20;;;;;;5044287;28;20090;-75
2021/01/14 09:31:33;;;;;;;11.40;8.20;;;1.70;91.20;;;;;;5043173;28;20032;-73
2021/01/14 09:34:00;;;;;;;12.90;7.95;;;1.70;91.00;;;;;;5046813;28;20044;-75
2021/01/14 09:36:26;;;;;;;12.43;7.30;;;1.70;91.00;;;;;;5047677;28;20061;-73
2021/01/14 09:39:00;;;;;;;10.77;7.22;;;1.60;91.20;;;;;;5046789;28;20072;-75
2021/01/14 09:41:39;;;;;;;11.38;7.55;;;1.60;91.30;;;;;;5041558;28;20048;-75
2021/01/14 09:44:15;;;;;;;12.10;7.60;;;1.60;91.40;;;;;;5044043;28;20052;-73
2021/01/14 09:46:44;;;;;;;10.68;7.30;;;1.60;91.40;;;;;;5041870;28;20037;-75
2021/01/14 09:49:14;;;;;;;13.27;8.80;;;1.60;91.40;;;;;;5048358;28;20025;-74
2021/01/14 09:51:42;;;;;;;13.55;8.25;;;1.70;91.40;;;;;;5045515;28;20025;-73
2021/01/14 09:54:09;;;;;;;14.98;9.55;;;1.70;91.50;;;;;;5041787;28;20041;-73
2021/01/14 09:56:41;;;;;;;17.52;11.50;;;1.60;91.50;;;;;;5045171;28;20036;-73
2021/01/14 09:59:25;;;;;;;13.90;8.35;;;1.60;91.70;;;;;;5044637;28;20117;-74
2021/01/14 10:02:13;;;;;;;14.50;8.73;;;1.60;91.70;;;;;;5044771;28;20110;-73
2021/01/14 10:04:43;;;;;;;12.20;7.60;;;1.60;91.50;;;;;;5033165;28;20389;-76
2021/01/14 10:07:16;;;;;;;12.32;7.82;;;1.60;91.70;;;;;;5042763;28;20082;-75
2021/01/14 10:09:42;;;;;;;11.93;7.70;;;1.60;91.60;;;;;;5041034;28;20116;-72
2021/01/14 10:12:10;;;;;;;13.98;7.65;;;1.60;91.80;;;;;;5043895;28;20033;-74
2021/01/14 10:14:35;;;;;;;12.55;7.40;;;1.60;91.70;;;;;;5041677;28;20044;-73
2021/01/14 10:17:09;;;;;;;11.20;6.43;;;1.50;91.60;;;;;;5042721;28;20391;-72
2021/01/14 10:19:40;;;;;;;10.40;6.65;;;1.70;91.80;;;;;;5050346;28;20045;-74
2021/01/14 10:22:07;;;;;;;8.73;5.50;;;1.70;91.70;;;;;;5052176;28;20045;-72
2021/01/14 10:24:33;;;;;;;9.27;5.55;;;1.80;91.50;;;;;;5055388;28;20040;-74
2021/01/14 10:27:24;;;;;;;10.02;5.60;;;1.80;91.10;;;;;;5047208;28;20029;-72
2021/01/14 10:29:55;;;;;;;10.15;5.53;;;1.80;91.50;;;;;;5049954;28;20071;-73
2021/01/14 10:32:24;;;;;;;10.23;5.43;;;1.90;91.30;;;;;;5047144;28;20053;-73
2021/01/14 10:34:52;;;;;;;11.68;7.03;;;1.90;91.00;;;;;;5052165;28;20029;-73
2021/01/14 10:37:23;;;;;;;11.02;6.88;;;1.90;91.00;;;;;;5045695;28;20033;-72
2021/01/14 10:39:53;;;;;;;10.15;6.22;;;1.90;90.90;;;;;;5046319;28;20443;-78
2021/01/14 10:42:32;;;;;;;11.10;6.63;;;1.80;90.90;;;;;;5043238;28;20035;-75
2021/01/14 10:45:11;;;;;;;13.18;6.47;;;1.80;91.20;;;;;;5048707;28;20041;-73
2021/01/14 10:47:38;;;;;;;12.93;7.05;;;1.80;91.20;;;;;;5046525;28;20125;-73
2021/01/14 10:50:29;;;;;;;12.45;7.72;;;1.80;91.00;;;;;;5044754;28;20436;-74
2021/01/14 10:52:58;;;;;;;12.27;6.40;;;1.80;91.00;;;;;;5045012;28;20475;-74
2021/01/14 10:55:24;;;;;;;10.40;5.45;;;1.90;90.80;;;;;;5046332;28;20049;-75
2021/01/14 10:57:55;;;;;;;9.80;6.93;;;1.80;90.80;;;;;;5048529;28;20045;-72
2021/01/14 11:00:40;;;;;;;9.57;5.85;;;1.90;90.90;;;;;;5045267;28;20438;-73
2021/01/14 11:03:10;;;;;;;;;;;1.80;90.90;;;;;;5045606;28;20523;-72
2021/01/14 11:06:01;;;;;;;10.48;5.28;;;1.70;91.10;;;;;;5046681;28;20023;-73
2021/01/14 11:08:37;;;;;;;9.35;4.80;;;1.70;91.30;;;;;;5046261;28;20044;-72
2021/01/14 11:11:14;;;;;;;10.23;5.25;;;1.80;91.10;;;;;;5045705;28;20196;-73
2021/01/14 11:13:49;;;;;;;7.68;4.15;;;1.80;90.90;;;;;;5040674;28;20369;-73
2021/01/14 11:16:20;;;;;;;8.40;4.10;;;1.80;90.90;;;;;;5045825;28;20044;-73
2021/01/14 11:18:47;;;;;;;12.15;5.57;;;1.80;90.90;;;;;;5046765;28;20124;-73
2021/01/14 11:21:16;;;;;;;8.55;4.70;;;1.80;91.00;;;;;;5048400;28;20118;-74
2021/01/14 11:23:42;;;;;;;12.57;5.28;;;1.70;91.10;;;;;;5043515;28;20103;-73
2021/01/14 11:26:08;;;;;;;14.18;6.82;;;1.70;91.20;;;;;;5045631;28;20448;-73
2021/01/14 11:28:40;;;;;;;13.38;6.88;;;1.70;91.20;;;;;;5045263;28;20162;-75
2021/01/14 11:31:07;;;;;;;13.82;6.47;;;1.70;91.20;;;;;;5041063;28;20083;-76
2021/01/14 11:33:33;;;;;;;11.90;6.75;;;1.80;91.40;;;;;;5047062;28;20036;-74
2021/01/14 11:35:59;;;;;;;8.50;4.88;;;1.80;91.40;;;;;;5043427;28;20033;-74
2021/01/14 11:38:24;;;;;;;11.50;5.63;;;1.80;91.20;;;;;;5046104;28;20099;-73
2021/01/14 11:40:51;;;;;;;11.88;5.70;;;1.80;91.10;;;;;;5044510;28;20037;-73
2021/01/14 11:43:17;;;;;;;10.18;6.43;;;1.80;91.20;;;;;;5042094;28;20183;-74
2021/01/14 11:45:43;;;;;;;12.63;6.40;;;1.80;91.20;;;;;;5061823;28;20044;-73
2021/01/14 11:48:09;;;;;;;11.55;5.55;;;1.80;91.20;;;;;;5045505;28;20044;-74
2021/01/14 11:50:35;;;;;;;9.30;5.85;;;1.80;91.30;;;;;;5046128;28;20044;-73
2021/01/14 11:53:00;;;;;;;11.32;5.47;;;1.90;91.10;;;;;;5046246;28;20037;-74
2021/01/14 11:55:26;;;;;;;11.50;5.93;;;1.90;90.90;;;;;;5044137;28;20079;-73
2021/01/14 11:57:52;;;;;;;10.75;5.38;;;1.80;91.00;;;;;;5043862;28;20043;-74
2021/01/14 12:00:18;;;;;;;11.15;6.13;;;1.70;91.30;;;;;;5045873;28;20431;-72
2021/01/14 12:02:44;;;;;;;11.60;7.13;;;1.80;91.30;;;;;;5040244;28;20037;-73
2021/01/14 12:05:11;;;;;;;14.40;8.88;;;1.80;91.40;;;;;;5050708;28;20041;-76
2021/01/14 12:07:37;;;;;;;20.15;12.07;;;1.80;91.20;;;;;;5050072;28;20037;-73
2021/01/14 12:10:03;;;;;;;12.48;6.97;;;1.80;91.30;;;;;;5049376;28;20545;-72
2021/01/14 12:12:29;;;;;;;11.30;7.00;;;1.80;91.40;;;;;;5048967;28;20044;-72
2021/01/14 12:14:55;;;;;;;12.50;7.40;;;1.90;91.20;;;;;;5048659;28;20025;-73
2021/01/14 12:17:21;;;;;;;13.68;6.85;;;1.90;91.20;;;;;;5040569;28;20068;-73
2021/01/14 12:19:47;;;;;;;13.80;6.70;;;1.90;91.10;;;;;;5049572;28;20068;-73
2021/01/14 12:22:12;;;;;;;12.70;7.10;;;1.80;91.30;;;;;;5043004;28;20059;-76
2021/01/14 12:24:38;;;;;;;10.95;6.40;;;1.90;91.20;;;;;;5046395;28;20044;-72
2021/01/14 12:27:04;;;;;;;11.25;5.70;;;1.90;91.00;;;;;;5043565;28;20036;-72
2021/01/14 12:29:29;;;;;;;9.60;5.53;;;2.00;91.10;;;;;;5043975;28;20036;-73
2021/01/14 12:31:55;;;;;;;10.68;5.68;;;2.00;91.10;;;;;;5042816;28;20488;-73
2021/01/14 12:34:21;;;;;;;10.00;5.82;;;2.00;91.00;;;;;;5045591;28;20043;-72
2021/01/14 12:36:47;;;;;;;9.00;5.50;;;2.10;90.90;;;;;;5046699;28;20029;-72
2021/01/14 12:39:13;;;;;;;10.23;6.05;;;2.10;90.70;;;;;;5048003;28;20033;-76
2021/01/14 12:41:39;;;;;;;13.23;7.05;;;2.10;90.70;;;;;;5043194;28;20484;-73
2021/01/14 12:44:06;;;;;;;9.07;5.28;;;2.10;90.50;;;;;;5044606;28;20416;-73
2021/01/14 12:46:33;;;;;;;13.43;6.00;;;2.10;90.50;;;;;;5056807;28;20365;-73
2021/01/14 12:48:59;;;;;;;8.93;6.03;;;2.20;90.60;;;;;;5045149;28;20475;-72
2021/01/14 12:51:25;;;;;;;12.48;6.70;;;2.10;90.70;;;;;;5047658;28;20040;-72
2021/01/14 12:53:50;;;;;;;9.68;5.68;;;2.10;90.80;;;;;;5048456;28;20755;-72
2021/01/14 12:56:16;;;;;;;11.65;5.95;;;2.20;90.80;;;;;;5050131;28;20347;-73
2021/01/14 12:58:42;;;;;;;9.13;5.20;;;2.10;90.70;;;;;;5046712;28;20144;-73